Terminal Aerodrome Forecast
Issued by NWS

Home | Current Version | Previous Version | Text Only | Print | Product List | Glossary On
Versions: 1 2 3 4 5 6 7 8 9 10 11 12 13 14 15 16 17 18 19 20 21 22
000
FTUS43 KICT 181136
TAFSLN
TAF
KSLN 181136Z 1812/1912 19005KT P6SM BKN250
     FM181600 18009KT P6SM BKN100
     FM182000 19013KT P6SM BKN100
     FM190400 17007KT P6SM OVC015
     FM190700 17006KT 5SM BR BKN008
     FM190900 16006KT 5SM BR OVC003
      AMD NOT SKED=

USA.gov is the U.S. government's official web portal to all federal, state and local government web resources and services.